sensor_id;sensor_type;location;lat;lon;timestamp;temperature;humidity
16655;DHT22;8441;51.344;7.022;2023-04-25T00:00:07;6.00;99.90
16655;DHT22;8441;51.344;7.022;2023-04-25T00:02:34;6.00;99.90
16655;DHT22;8441;51.344;7.022;2023-04-25T00:05:02;6.10;99.90
16655;DHT22;8441;51.344;7.022;2023-04-25T00:07:30;6.10;99.90
16655;DHT22;8441;51.344;7.022;2023-04-25T00:09:58;6.10;99.90
16655;DHT22;8441;51.344;7.022;2023-04-25T00:12:25;6.10;99.90
16655;DHT22;8441;51.344;7.022;2023-04-25T00:14:54;6.10;99.90
16655;DHT22;8441;51.344;7.022;2023-04-25T00:17:24;6.10;99.90
16655;DHT22;8441;51.344;7.022;2023-04-25T00:19:52;6.10;99.90
16655;DHT22;8441;51.344;7.022;2023-04-25T00:22:20;6.10;99.90
16655;DHT22;8441;51.344;7.022;2023-04-25T00:24:47;6.20;99.90
16655;DHT22;8441;51.344;7.022;2023-04-25T00:27:15;6.20;99.90
16655;DHT22;8441;51.344;7.022;2023-04-25T00:29:42;6.20;99.90
16655;DHT22;8441;51.344;7.022;2023-04-25T00:32:09;6.20;99.90
16655;DHT22;8441;51.344;7.022;2023-04-25T00:34:37;6.20;99.90
16655;DHT22;8441;51.344;7.022;2023-04-25T00:37:05;6.20;99.90
16655;DHT22;8441;51.344;7.022;2023-04-25T00:39:32;6.20;99.90
16655;DHT22;8441;51.344;7.022;2023-04-25T00:42:00;6.20;99.90
16655;DHT22;8441;51.344;7.022;2023-04-25T00:44:29;6.20;99.90
16655;DHT22;8441;51.344;7.022;2023-04-25T00:46:58;6.20;99.90
16655;DHT22;8441;51.344;7.022;2023-04-25T00:49:25;6.20;99.90
16655;DHT22;8441;51.344;7.022;2023-04-25T00:51:54;6.20;99.90
16655;DHT22;8441;51.344;7.022;2023-04-25T00:54:21;6.20;99.90
16655;DHT22;8441;51.344;7.022;2023-04-25T00:56:49;6.20;99.90
16655;DHT22;8441;51.344;7.022;2023-04-25T00:59:17;6.20;99.90
16655;DHT22;8441;51.344;7.022;2023-04-25T01:01:45;6.20;99.90
16655;DHT22;8441;51.344;7.022;2023-04-25T01:04:13;6.20;99.90
16655;DHT22;8441;51.344;7.022;2023-04-25T01:06:40;6.20;99.90
16655;DHT22;8441;51.344;7.022;2023-04-25T01:09:09;6.20;99.90
16655;DHT22;8441;51.344;7.022;2023-04-25T01:11:37;6.20;99.90
16655;DHT22;8441;51.344;7.022;2023-04-25T01:14:05;6.20;99.90
16655;DHT22;8441;51.344;7.022;2023-04-25T01:16:33;6.20;99.90
16655;DHT22;8441;51.344;7.022;2023-04-25T01:19:00;6.20;99.90
16655;DHT22;8441;51.344;7.022;2023-04-25T01:21:29;6.20;99.90
16655;DHT22;8441;51.344;7.022;2023-04-25T01:23:56;6.20;99.90
16655;DHT22;8441;51.344;7.022;2023-04-25T01:26:25;6.20;99.90
16655;DHT22;8441;51.344;7.022;2023-04-25T01:28:52;6.20;99.90
16655;DHT22;8441;51.344;7.022;2023-04-25T01:31:19;6.20;99.90
16655;DHT22;8441;51.344;7.022;2023-04-25T01:33:47;6.20;99.90
16655;DHT22;8441;51.344;7.022;2023-04-25T01:36:15;6.20;99.90
16655;DHT22;8441;51.344;7.022;2023-04-25T01:38:44;6.20;99.90
16655;DHT22;8441;51.344;7.022;2023-04-25T01:41:13;6.20;99.90
16655;DHT22;8441;51.344;7.022;2023-04-25T01:43:40;6.20;99.90
16655;DHT22;8441;51.344;7.022;2023-04-25T01:46:07;6.10;99.90
16655;DHT22;8441;51.344;7.022;2023-04-25T01:48:35;6.10;99.90
16655;DHT22;8441;51.344;7.022;2023-04-25T01:51:02;6.20;99.90
16655;DHT22;8441;51.344;7.022;2023-04-25T01:53:29;6.10;99.90
16655;DHT22;8441;51.344;7.022;2023-04-25T01:55:58;6.20;99.90
16655;DHT22;8441;51.344;7.022;2023-04-25T01:58:25;6.20;99.90
16655;DHT22;8441;51.344;7.022;2023-04-25T02:00:52;6.20;99.90
16655;DHT22;8441;51.344;7.022;2023-04-25T02:03:20;6.20;99.90
16655;DHT22;8441;51.344;7.022;2023-04-25T02:05:47;6.20;99.90
16655;DHT22;8441;51.344;7.022;2023-04-25T02:08:15;6.20;99.90
16655;DHT22;8441;51.344;7.022;2023-04-25T02:10:43;6.20;99.90
16655;DHT22;8441;51.344;7.022;2023-04-25T02:13:12;6.30;99.90
16655;DHT22;8441;51.344;7.022;2023-04-25T02:15:39;6.20;99.90
16655;DHT22;8441;51.344;7.022;2023-04-25T02:18:06;6.20;99.90
16655;DHT22;8441;51.344;7.022;2023-04-25T02:20:36;6.20;99.90
16655;DHT22;8441;51.344;7.022;2023-04-25T02:23:03;6.20;99.90
16655;DHT22;8441;51.344;7.022;2023-04-25T02:25:31;6.20;99.90
16655;DHT22;8441;51.344;7.022;2023-04-25T02:27:58;6.20;99.90
16655;DHT22;8441;51.344;7.022;2023-04-25T02:30:27;6.20;99.90
16655;DHT22;8441;51.344;7.022;2023-04-25T02:32:54;6.20;99.90
16655;DHT22;8441;51.344;7.022;2023-04-25T02:35:22;6.20;99.90
16655;DHT22;8441;51.344;7.022;2023-04-25T02:37:49;6.20;99.90
16655;DHT22;8441;51.344;7.022;2023-04-25T02:40:16;6.20;99.90
16655;DHT22;8441;51.344;7.022;2023-04-25T02:42:43;6.20;99.90
16655;DHT22;8441;51.344;7.022;2023-04-25T02:45:12;6.20;99.90
16655;DHT22;8441;51.344;7.022;2023-04-25T02:47:40;6.20;99.90
16655;DHT22;8441;51.344;7.022;2023-04-25T02:50:08;6.10;99.90
16655;DHT22;8441;51.344;7.022;2023-04-25T02:52:35;6.10;99.90
16655;DHT22;8441;51.344;7.022;2023-04-25T02:55:02;6.10;99.90
16655;DHT22;8441;51.344;7.022;2023-04-25T02:57:29;6.10;99.90
16655;DHT22;8441;51.344;7.022;2023-04-25T02:59:56;6.10;99.90
16655;DHT22;8441;51.344;7.022;2023-04-25T03:02:24;6.10;99.90
16655;DHT22;8441;51.344;7.022;2023-04-25T03:04:52;6.10;99.90
16655;DHT22;8441;51.344;7.022;2023-04-25T03:07:20;6.10;99.90
16655;DHT22;8441;51.344;7.022;2023-04-25T03:09:47;6.00;99.90
16655;DHT22;8441;51.344;7.022;2023-04-25T03:12:15;6.00;99.90
16655;DHT22;8441;51.344;7.022;2023-04-25T03:14:42;6.10;99.90
16655;DHT22;8441;51.344;7.022;2023-04-25T03:17:09;6.00;99.90
16655;DHT22;8441;51.344;7.022;2023-04-25T03:19:37;6.00;99.90
16655;DHT22;8441;51.344;7.022;2023-04-25T03:22:05;6.00;99.90
16655;DHT22;8441;51.344;7.022;2023-04-25T03:24:32;6.10;99.90
16655;DHT22;8441;51.344;7.022;2023-04-25T03:26:59;6.00;99.90
16655;DHT22;8441;51.344;7.022;2023-04-25T03:29:27;6.00;99.90
16655;DHT22;8441;51.344;7.022;2023-04-25T03:31:54;6.00;99.90
16655;DHT22;8441;51.344;7.022;2023-04-25T03:34:21;6.00;99.90
16655;DHT22;8441;51.344;7.022;2023-04-25T03:36:50;5.90;99.90
16655;DHT22;8441;51.344;7.022;2023-04-25T03:39:18;5.90;99.90
16655;DHT22;8441;51.344;7.022;2023-04-25T03:41:45;5.90;99.90
16655;DHT22;8441;51.344;7.022;2023-04-25T03:44:12;5.80;99.90
16655;DHT22;8441;51.344;7.022;2023-04-25T03:46:40;5.80;99.90
16655;DHT22;8441;51.344;7.022;2023-04-25T03:49:07;5.80;99.90
16655;DHT22;8441;51.344;7.022;2023-04-25T03:51:34;5.80;99.90
16655;DHT22;8441;51.344;7.022;2023-04-25T03:54:02;5.80;99.90
16655;DHT22;8441;51.344;7.022;2023-04-25T03:56:30;5.80;99.90
16655;DHT22;8441;51.344;7.022;2023-04-25T03:58:57;5.80;99.90
16655;DHT22;8441;51.344;7.022;2023-04-25T04:01:25;5.80;99.90
16655;DHT22;8441;51.344;7.022;2023-04-25T04:03:52;5.80;99.90
16655;DHT22;8441;51.344;7.022;2023-04-25T04:06:19;5.70;99.90
16655;DHT22;8441;51.344;7.022;2023-04-25T04:08:46;5.80;99.90
16655;DHT22;8441;51.344;7.022;2023-04-25T04:11:14;5.80;99.90
16655;DHT22;8441;51.344;7.022;2023-04-25T04:13:42;5.80;99.90
16655;DHT22;8441;51.344;7.022;2023-04-25T04:16:09;5.90;99.90
16655;DHT22;8441;51.344;7.022;2023-04-25T04:18:37;5.90;99.90
16655;DHT22;8441;51.344;7.022;2023-04-25T04:21:04;5.90;99.90
16655;DHT22;8441;51.344;7.022;2023-04-25T04:23:31;5.90;99.90
16655;DHT22;8441;51.344;7.022;2023-04-25T04:25:59;5.90;99.90
16655;DHT22;8441;51.344;7.022;2023-04-25T04:28:26;5.90;99.90
16655;DHT22;8441;51.344;7.022;2023-04-25T04:30:55;5.80;99.90
16655;DHT22;8441;51.344;7.022;2023-04-25T04:33:22;5.80;99.90
16655;DHT22;8441;51.344;7.022;2023-04-25T04:35:50;5.80;99.90
16655;DHT22;8441;51.344;7.022;2023-04-25T04:38:17;5.80;99.90
16655;DHT22;8441;51.344;7.022;2023-04-25T04:40:45;5.80;99.90
16655;DHT22;8441;51.344;7.022;2023-04-25T04:43:13;5.80;99.90
16655;DHT22;8441;51.344;7.022;2023-04-25T04:45:42;5.80;99.90
16655;DHT22;8441;51.344;7.022;2023-04-25T04:48:11;5.80;99.90
16655;DHT22;8441;51.344;7.022;2023-04-25T04:50:39;5.80;99.90
16655;DHT22;8441;51.344;7.022;2023-04-25T04:53:07;5.80;99.90
16655;DHT22;8441;51.344;7.022;2023-04-25T04:55:34;5.80;99.90
16655;DHT22;8441;51.344;7.022;2023-04-25T04:58:01;5.80;99.90
16655;DHT22;8441;51.344;7.022;2023-04-25T05:00:28;5.80;99.90
16655;DHT22;8441;51.344;7.022;2023-04-25T05:02:56;5.80;99.90
16655;DHT22;8441;51.344;7.022;2023-04-25T05:05:24;5.80;99.90
16655;DHT22;8441;51.344;7.022;2023-04-25T05:07:51;5.90;99.90
16655;DHT22;8441;51.344;7.022;2023-04-25T05:10:19;5.80;99.90
16655;DHT22;8441;51.344;7.022;2023-04-25T05:12:47;5.80;99.90
16655;DHT22;8441;51.344;7.022;2023-04-25T05:15:14;5.90;99.90
16655;DHT22;8441;51.344;7.022;2023-04-25T05:17:41;5.90;99.90
16655;DHT22;8441;51.344;7.022;2023-04-25T05:20:09;6.00;99.90
16655;DHT22;8441;51.344;7.022;2023-04-25T05:22:37;5.90;99.90
16655;DHT22;8441;51.344;7.022;2023-04-25T05:25:05;6.10;99.90
16655;DHT22;8441;51.344;7.022;2023-04-25T05:27:32;6.10;99.90
16655;DHT22;8441;51.344;7.022;2023-04-25T05:29:59;6.10;99.90
16655;DHT22;8441;51.344;7.022;2023-04-25T05:32:26;6.00;99.90
16655;DHT22;8441;51.344;7.022;2023-04-25T05:34:54;6.00;99.90
16655;DHT22;8441;51.344;7.022;2023-04-25T05:37:21;6.10;99.90
16655;DHT22;8441;51.344;7.022;2023-04-25T05:39:49;6.20;99.90
16655;DHT22;8441;51.344;7.022;2023-04-25T05:42:16;6.20;99.90
16655;DHT22;8441;51.344;7.022;2023-04-25T05:44:44;6.40;99.90
16655;DHT22;8441;51.344;7.022;2023-04-25T05:47:12;6.60;99.90
16655;DHT22;8441;51.344;7.022;2023-04-25T05:49:39;6.70;99.90
16655;DHT22;8441;51.344;7.022;2023-04-25T05:52:06;6.80;99.90
16655;DHT22;8441;51.344;7.022;2023-04-25T05:54:33;6.90;99.90
16655;DHT22;8441;51.344;7.022;2023-04-25T05:57:01;6.90;99.90
16655;DHT22;8441;51.344;7.022;2023-04-25T05:59:29;6.90;99.90
16655;DHT22;8441;51.344;7.022;2023-04-25T06:01:56;6.90;99.90
16655;DHT22;8441;51.344;7.022;2023-04-25T06:04:24;6.70;99.90
16655;DHT22;8441;51.344;7.022;2023-04-25T06:06:51;6.70;99.90
16655;DHT22;8441;51.344;7.022;2023-04-25T06:09:19;6.70;99.90
16655;DHT22;8441;51.344;7.022;2023-04-25T06:11:46;6.70;99.90
16655;DHT22;8441;51.344;7.022;2023-04-25T06:14:14;6.80;99.90
16655;DHT22;8441;51.344;7.022;2023-04-25T06:16:41;6.90;99.90
16655;DHT22;8441;51.344;7.022;2023-04-25T06:19:09;6.90;99.90
16655;DHT22;8441;51.344;7.022;2023-04-25T06:21:36;7.00;99.90
16655;DHT22;8441;51.344;7.022;2023-04-25T06:24:03;7.10;99.90
16655;DHT22;8441;51.344;7.022;2023-04-25T06:26:31;7.10;99.90
16655;DHT22;8441;51.344;7.022;2023-04-25T06:28:58;7.00;99.90
16655;DHT22;8441;51.344;7.022;2023-04-25T06:31:26;6.80;99.90
16655;DHT22;8441;51.344;7.022;2023-04-25T06:33:54;6.90;99.90
16655;DHT22;8441;51.344;7.022;2023-04-25T06:36:21;6.80;99.90
16655;DHT22;8441;51.344;7.022;2023-04-25T06:38:50;6.90;99.90
16655;DHT22;8441;51.344;7.022;2023-04-25T06:41:18;7.00;99.90
16655;DHT22;8441;51.344;7.022;2023-04-25T06:43:45;7.00;99.90
16655;DHT22;8441;51.344;7.022;2023-04-25T06:46:12;6.90;99.90
16655;DHT22;8441;51.344;7.022;2023-04-25T06:48:41;6.80;99.90
16655;DHT22;8441;51.344;7.022;2023-04-25T06:51:08;6.80;99.90
16655;DHT22;8441;51.344;7.022;2023-04-25T06:53:36;6.60;99.90
16655;DHT22;8441;51.344;7.022;2023-04-25T06:56:03;6.50;99.90
16655;DHT22;8441;51.344;7.022;2023-04-25T06:58:30;6.60;99.90
16655;DHT22;8441;51.344;7.022;2023-04-25T07:00:58;6.50;99.90
16655;DHT22;8441;51.344;7.022;2023-04-25T07:03:25;6.70;99.90
16655;DHT22;8441;51.344;7.022;2023-04-25T07:05:53;6.70;99.90
16655;DHT22;8441;51.344;7.022;2023-04-25T07:08:21;6.80;99.90
16655;DHT22;8441;51.344;7.022;2023-04-25T07:10:48;7.10;99.90
16655;DHT22;8441;51.344;7.022;2023-04-25T07:13:15;7.20;99.90
16655;DHT22;8441;51.344;7.022;2023-04-25T07:15:43;7.10;99.90
16655;DHT22;8441;51.344;7.022;2023-04-25T07:18:11;6.90;99.90
16655;DHT22;8441;51.344;7.022;2023-04-25T07:20:38;6.90;99.90
16655;DHT22;8441;51.344;7.022;2023-04-25T07:23:07;6.90;99.90
16655;DHT22;8441;51.344;7.022;2023-04-25T07:25:34;7.00;99.90
16655;DHT22;8441;51.344;7.022;2023-04-25T07:28:02;7.10;99.90
16655;DHT22;8441;51.344;7.022;2023-04-25T07:30:29;7.30;99.90
16655;DHT22;8441;51.344;7.022;2023-04-25T07:32:56;7.50;99.90
16655;DHT22;8441;51.344;7.022;2023-04-25T07:35:23;7.50;99.90
16655;DHT22;8441;51.344;7.022;2023-04-25T07:37:50;7.60;99.90
16655;DHT22;8441;51.344;7.022;2023-04-25T07:40:19;7.30;99.90
16655;DHT22;8441;51.344;7.022;2023-04-25T07:42:47;7.40;99.90
16655;DHT22;8441;51.344;7.022;2023-04-25T07:45:14;7.50;99.90
16655;DHT22;8441;51.344;7.022;2023-04-25T07:47:41;7.50;99.90
16655;DHT22;8441;51.344;7.022;2023-04-25T07:50:09;7.80;99.90
16655;DHT22;8441;51.344;7.022;2023-04-25T07:52:37;8.00;99.90
16655;DHT22;8441;51.344;7.022;2023-04-25T07:55:04;7.90;99.90
16655;DHT22;8441;51.344;7.022;2023-04-25T07:57:33;7.70;99.90
16655;DHT22;8441;51.344;7.022;2023-04-25T08:00:00;7.50;99.90
16655;DHT22;8441;51.344;7.022;2023-04-25T08:02:27;7.60;99.90
16655;DHT22;8441;51.344;7.022;2023-04-25T08:04:54;7.80;99.90
16655;DHT22;8441;51.344;7.022;2023-04-25T08:07:21;8.20;99.90
16655;DHT22;8441;51.344;7.022;2023-04-25T08:09:49;8.50;99.90
16655;DHT22;8441;51.344;7.022;2023-04-25T08:12:16;8.20;99.90
16655;DHT22;8441;51.344;7.022;2023-04-25T08:14:44;8.20;99.90
16655;DHT22;8441;51.344;7.022;2023-04-25T08:17:11;8.20;99.90
16655;DHT22;8441;51.344;7.022;2023-04-25T08:19:39;8.30;99.90
16655;DHT22;8441;51.344;7.022;2023-04-25T08:22:06;8.50;99.90
16655;DHT22;8441;51.344;7.022;2023-04-25T08:24:33;8.70;99.90
16655;DHT22;8441;51.344;7.022;2023-04-25T08:27:00;8.70;99.90
16655;DHT22;8441;51.344;7.022;2023-04-25T08:29:28;8.90;99.90
16655;DHT22;8441;51.344;7.022;2023-04-25T08:31:56;8.70;99.90
16655;DHT22;8441;51.344;7.022;2023-04-25T08:34:23;8.60;99.90
16655;DHT22;8441;51.344;7.022;2023-04-25T08:36:51;8.60;99.90
16655;DHT22;8441;51.344;7.022;2023-04-25T08:39:18;8.50;99.90
16655;DHT22;8441;51.344;7.022;2023-04-25T08:41:46;8.60;99.90
16655;DHT22;8441;51.344;7.022;2023-04-25T08:44:14;8.40;99.90
16655;DHT22;8441;51.344;7.022;2023-04-25T08:46:47;8.50;99.90
16655;DHT22;8441;51.344;7.022;2023-04-25T08:49:18;8.60;99.90
16655;DHT22;8441;51.344;7.022;2023-04-25T08:51:46;8.80;99.90
16655;DHT22;8441;51.344;7.022;2023-04-25T08:54:14;9.10;99.90
16655;DHT22;8441;51.344;7.022;2023-04-25T08:56:45;9.40;99.90
16655;DHT22;8441;51.344;7.022;2023-04-25T08:59:14;9.60;99.90
16655;DHT22;8441;51.344;7.022;2023-04-25T09:01:41;9.80;99.90
16655;DHT22;8441;51.344;7.022;2023-04-25T09:04:08;9.60;99.90
16655;DHT22;8441;51.344;7.022;2023-04-25T09:06:36;9.20;99.90
16655;DHT22;8441;51.344;7.022;2023-04-25T09:09:05;9.10;99.90
16655;DHT22;8441;51.344;7.022;2023-04-25T09:11:34;9.20;99.90
16655;DHT22;8441;51.344;7.022;2023-04-25T09:14:11;9.30;99.90
16655;DHT22;8441;51.344;7.022;2023-04-25T09:17:00;9.50;99.90
16655;DHT22;8441;51.344;7.022;2023-04-25T09:19:29;9.70;99.90
16655;DHT22;8441;51.344;7.022;2023-04-25T09:21:58;9.70;99.90
16655;DHT22;8441;51.344;7.022;2023-04-25T09:24:33;9.90;99.90
16655;DHT22;8441;51.344;7.022;2023-04-25T09:27:03;10.00;99.90
16655;DHT22;8441;51.344;7.022;2023-04-25T09:29:31;9.80;99.90
16655;DHT22;8441;51.344;7.022;2023-04-25T09:32:18;9.90;99.90
16655;DHT22;8441;51.344;7.022;2023-04-25T09:34:47;9.60;99.90
16655;DHT22;8441;51.344;7.022;2023-04-25T09:37:21;9.70;99.90
16655;DHT22;8441;51.344;7.022;2023-04-25T09:39:49;9.70;99.90
16655;DHT22;8441;51.344;7.022;2023-04-25T09:42:17;9.70;99.90
16655;DHT22;8441;51.344;7.022;2023-04-25T09:44:45;9.70;99.90
16655;DHT22;8441;51.344;7.022;2023-04-25T09:47:14;9.90;99.90
16655;DHT22;8441;51.344;7.022;2023-04-25T09:49:42;9.90;99.90
16655;DHT22;8441;51.344;7.022;2023-04-25T09:52:13;9.90;99.90
16655;DHT22;8441;51.344;7.022;2023-04-25T09:54:44;10.40;99.90
16655;DHT22;8441;51.344;7.022;2023-04-25T09:57:12;10.50;99.90
16655;DHT22;8441;51.344;7.022;2023-04-25T09:59:45;10.80;99.90
16655;DHT22;8441;51.344;7.022;2023-04-25T10:02:14;11.00;99.90
16655;DHT22;8441;51.344;7.022;2023-04-25T10:04:42;10.50;99.90
16655;DHT22;8441;51.344;7.022;2023-04-25T10:07:11;10.50;99.90
16655;DHT22;8441;51.344;7.022;2023-04-25T10:09:39;10.50;99.90
16655;DHT22;8441;51.344;7.022;2023-04-25T10:12:08;10.50;99.90
16655;DHT22;8441;51.344;7.022;2023-04-25T10:14:36;10.80;99.90
16655;DHT22;8441;51.344;7.022;2023-04-25T10:17:03;10.90;99.90
16655;DHT22;8441;51.344;7.022;2023-04-25T10:19:31;10.50;99.90
16655;DHT22;8441;51.344;7.022;2023-04-25T10:22:05;10.40;99.90
16655;DHT22;8441;51.344;7.022;2023-04-25T10:24:35;10.50;99.90
16655;DHT22;8441;51.344;7.022;2023-04-25T10:27:02;10.40;99.70
16655;DHT22;8441;51.344;7.022;2023-04-25T10:29:31;10.50;99.90
16655;DHT22;8441;51.344;7.022;2023-04-25T10:31:59;10.60;99.60
16655;DHT22;8441;51.344;7.022;2023-04-25T10:34:42;10.90;99.40
16655;DHT22;8441;51.344;7.022;2023-04-25T10:37:12;10.70;98.30
16655;DHT22;8441;51.344;7.022;2023-04-25T10:39:40;10.50;98.00
16655;DHT22;8441;51.344;7.022;2023-04-25T10:42:08;10.90;99.90
16655;DHT22;8441;51.344;7.022;2023-04-25T10:44:37;11.00;95.10
16655;DHT22;8441;51.344;7.022;2023-04-25T10:47:06;10.80;94.70
16655;DHT22;8441;51.344;7.022;2023-04-25T10:49:35;10.90;95.90
16655;DHT22;8441;51.344;7.022;2023-04-25T10:52:17;11.10;94.30
16655;DHT22;8441;51.344;7.022;2023-04-25T10:54:48;11.00;94.70
16655;DHT22;8441;51.344;7.022;2023-04-25T10:57:28;11.20;94.80
16655;DHT22;8441;51.344;7.022;2023-04-25T11:00:10;11.40;94.90
16655;DHT22;8441;51.344;7.022;2023-04-25T11:02:41;11.20;94.20
16655;DHT22;8441;51.344;7.022;2023-04-25T11:05:09;10.90;94.60
16655;DHT22;8441;51.344;7.022;2023-04-25T11:07:49;10.90;95.90
16655;DHT22;8441;51.344;7.022;2023-04-25T11:10:17;11.50;97.50
16655;DHT22;8441;51.344;7.022;2023-04-25T11:12:45;11.70;94.90
16655;DHT22;8441;51.344;7.022;2023-04-25T11:15:14;11.60;94.30
16655;DHT22;8441;51.344;7.022;2023-04-25T11:17:41;11.50;95.40
16655;DHT22;8441;51.344;7.022;2023-04-25T11:20:10;11.30;95.00
16655;DHT22;8441;51.344;7.022;2023-04-25T11:22:41;10.50;96.40
16655;DHT22;8441;51.344;7.022;2023-04-25T11:25:09;10.10;98.10
16655;DHT22;8441;51.344;7.022;2023-04-25T11:27:49;9.80;99.40
16655;DHT22;8441;51.344;7.022;2023-04-25T11:30:20;9.20;99.90
16655;DHT22;8441;51.344;7.022;2023-04-25T11:32:47;8.90;99.90
16655;DHT22;8441;51.344;7.022;2023-04-25T11:35:15;8.60;99.90
16655;DHT22;8441;51.344;7.022;2023-04-25T11:37:42;8.40;99.90
16655;DHT22;8441;51.344;7.022;2023-04-25T11:40:10;8.50;99.90
16655;DHT22;8441;51.344;7.022;2023-04-25T11:42:38;8.50;99.90
16655;DHT22;8441;51.344;7.022;2023-04-25T11:45:06;8.80;99.90
16655;DHT22;8441;51.344;7.022;2023-04-25T11:47:35;9.10;99.90
16655;DHT22;8441;51.344;7.022;2023-04-25T11:50:03;9.30;99.90
16655;DHT22;8441;51.344;7.022;2023-04-25T11:52:38;9.50;99.90
16655;DHT22;8441;51.344;7.022;2023-04-25T11:55:08;9.80;99.90
16655;DHT22;8441;51.344;7.022;2023-04-25T11:57:37;9.70;99.90
16655;DHT22;8441;51.344;7.022;2023-04-25T12:00:09;9.60;99.90
16655;DHT22;8441;51.344;7.022;2023-04-25T12:02:40;9.60;99.90
16655;DHT22;8441;51.344;7.022;2023-04-25T12:05:08;9.50;99.90
16655;DHT22;8441;51.344;7.022;2023-04-25T12:07:36;9.80;99.90
16655;DHT22;8441;51.344;7.022;2023-04-25T12:10:07;9.90;99.90
16655;DHT22;8441;51.344;7.022;2023-04-25T12:12:35;10.20;99.90
16655;DHT22;8441;51.344;7.022;2023-04-25T12:15:10;10.10;99.90
16655;DHT22;8441;51.344;7.022;2023-04-25T12:17:39;10.10;99.90
16655;DHT22;8441;51.344;7.022;2023-04-25T12:20:08;10.00;99.90
16655;DHT22;8441;51.344;7.022;2023-04-25T12:22:36;9.90;99.90
16655;DHT22;8441;51.344;7.022;2023-04-25T12:25:03;9.80;99.90
16655;DHT22;8441;51.344;7.022;2023-04-25T12:27:31;9.70;99.90
16655;DHT22;8441;51.344;7.022;2023-04-25T12:29:59;9.50;99.90
16655;DHT22;8441;51.344;7.022;2023-04-25T12:32:27;9.30;99.90
16655;DHT22;8441;51.344;7.022;2023-04-25T12:34:56;9.10;99.90
16655;DHT22;8441;51.344;7.022;2023-04-25T12:37:23;9.00;99.90
16655;DHT22;8441;51.344;7.022;2023-04-25T12:39:50;8.90;99.90
16655;DHT22;8441;51.344;7.022;2023-04-25T12:42:17;8.90;99.90
16655;DHT22;8441;51.344;7.022;2023-04-25T12:44:44;9.00;99.90
16655;DHT22;8441;51.344;7.022;2023-04-25T12:47:12;9.20;99.90
16655;DHT22;8441;51.344;7.022;2023-04-25T12:49:39;9.40;99.90
16655;DHT22;8441;51.344;7.022;2023-04-25T12:52:07;9.70;99.90
16655;DHT22;8441;51.344;7.022;2023-04-25T12:54:35;9.90;99.90
16655;DHT22;8441;51.344;7.022;2023-04-25T12:57:02;9.90;99.90
16655;DHT22;8441;51.344;7.022;2023-04-25T12:59:29;10.00;99.90
16655;DHT22;8441;51.344;7.022;2023-04-25T13:01:56;10.00;99.90
16655;DHT22;8441;51.344;7.022;2023-04-25T13:04:24;10.20;99.90
16655;DHT22;8441;51.344;7.022;2023-04-25T13:06:51;10.40;99.90
16655;DHT22;8441;51.344;7.022;2023-04-25T13:09:19;10.60;99.90
16655;DHT22;8441;51.344;7.022;2023-04-25T13:11:47;10.60;99.90
16655;DHT22;8441;51.344;7.022;2023-04-25T13:14:14;10.60;99.90
16655;DHT22;8441;51.344;7.022;2023-04-25T13:16:41;10.50;99.90
16655;DHT22;8441;51.344;7.022;2023-04-25T13:19:08;10.50;98.20
16655;DHT22;8441;51.344;7.022;2023-04-25T13:21:37;10.80;96.50
16655;DHT22;8441;51.344;7.022;2023-04-25T13:24:04;11.00;96.80
16655;DHT22;8441;51.344;7.022;2023-04-25T13:26:33;10.80;97.10
16655;DHT22;8441;51.344;7.022;2023-04-25T13:29:01;10.70;97.60
16655;DHT22;8441;51.344;7.022;2023-04-25T13:31:29;10.40;98.20
16655;DHT22;8441;51.344;7.022;2023-04-25T13:33:56;10.00;99.50
16655;DHT22;8441;51.344;7.022;2023-04-25T13:36:24;9.70;99.90
16655;DHT22;8441;51.344;7.022;2023-04-25T13:38:51;9.20;99.90
16655;DHT22;8441;51.344;7.022;2023-04-25T13:41:18;8.40;99.90
16655;DHT22;8441;51.344;7.022;2023-04-25T13:43:47;7.90;99.90
16655;DHT22;8441;51.344;7.022;2023-04-25T13:46:14;7.70;99.90
16655;DHT22;8441;51.344;7.022;2023-04-25T13:48:42;7.70;99.90
16655;DHT22;8441;51.344;7.022;2023-04-25T13:51:14;7.90;99.90
16655;DHT22;8441;51.344;7.022;2023-04-25T13:53:43;8.00;99.90
16655;DHT22;8441;51.344;7.022;2023-04-25T13:56:11;8.20;99.90
16655;DHT22;8441;51.344;7.022;2023-04-25T13:58:38;8.40;99.90
16655;DHT22;8441;51.344;7.022;2023-04-25T14:01:07;8.60;99.90
16655;DHT22;8441;51.344;7.022;2023-04-25T14:03:34;8.60;99.90
16655;DHT22;8441;51.344;7.022;2023-04-25T14:06:01;8.60;99.90
16655;DHT22;8441;51.344;7.022;2023-04-25T14:08:28;8.60;99.90
16655;DHT22;8441;51.344;7.022;2023-04-25T14:10:55;8.70;99.90
16655;DHT22;8441;51.344;7.022;2023-04-25T14:13:22;9.00;99.90
16655;DHT22;8441;51.344;7.022;2023-04-25T14:15:50;9.30;99.90
16655;DHT22;8441;51.344;7.022;2023-04-25T14:18:19;9.70;99.90
16655;DHT22;8441;51.344;7.022;2023-04-25T14:20:46;10.00;99.90
16655;DHT22;8441;51.344;7.022;2023-04-25T14:23:14;10.30;99.90
16655;DHT22;8441;51.344;7.022;2023-04-25T14:25:41;10.20;99.90
16655;DHT22;8441;51.344;7.022;2023-04-25T14:28:09;9.90;99.90
16655;DHT22;8441;51.344;7.022;2023-04-25T14:30:37;9.80;99.90
16655;DHT22;8441;51.344;7.022;2023-04-25T14:33:04;9.80;99.90
16655;DHT22;8441;51.344;7.022;2023-04-25T14:35:32;10.00;99.90
16655;DHT22;8441;51.344;7.022;2023-04-25T14:37:59;10.20;99.90
16655;DHT22;8441;51.344;7.022;2023-04-25T14:40:26;10.40;99.90
16655;DHT22;8441;51.344;7.022;2023-04-25T14:42:54;10.60;99.90
16655;DHT22;8441;51.344;7.022;2023-04-25T14:45:21;10.70;99.90
16655;DHT22;8441;51.344;7.022;2023-04-25T14:47:49;10.60;99.90
16655;DHT22;8441;51.344;7.022;2023-04-25T14:50:16;10.40;99.90
16655;DHT22;8441;51.344;7.022;2023-04-25T14:52:45;10.40;99.90
16655;DHT22;8441;51.344;7.022;2023-04-25T14:55:12;10.30;99.90
16655;DHT22;8441;51.344;7.022;2023-04-25T14:57:39;10.50;99.90
16655;DHT22;8441;51.344;7.022;2023-04-25T15:00:07;10.60;99.90
16655;DHT22;8441;51.344;7.022;2023-04-25T15:02:36;10.60;99.90
16655;DHT22;8441;51.344;7.022;2023-04-25T15:05:04;10.60;99.90
16655;DHT22;8441;51.344;7.022;2023-04-25T15:07:32;10.60;99.90
16655;DHT22;8441;51.344;7.022;2023-04-25T15:10:01;10.60;99.90
16655;DHT22;8441;51.344;7.022;2023-04-25T15:12:28;10.60;99.90
16655;DHT22;8441;51.344;7.022;2023-04-25T15:14:55;10.60;99.90
16655;DHT22;8441;51.344;7.022;2023-04-25T15:17:23;10.50;99.90
16655;DHT22;8441;51.344;7.022;2023-04-25T15:19:50;10.60;99.90
16655;DHT22;8441;51.344;7.022;2023-04-25T15:22:17;10.30;99.90
16655;DHT22;8441;51.344;7.022;2023-04-25T15:24:45;10.30;99.90
16655;DHT22;8441;51.344;7.022;2023-04-25T15:27:14;10.10;99.90
16655;DHT22;8441;51.344;7.022;2023-04-25T15:29:42;10.10;99.90
16655;DHT22;8441;51.344;7.022;2023-04-25T15:32:17;10.10;99.90
16655;DHT22;8441;51.344;7.022;2023-04-25T15:34:46;10.20;99.90
16655;DHT22;8441;51.344;7.022;2023-04-25T15:37:16;10.20;99.90
16655;DHT22;8441;51.344;7.022;2023-04-25T15:39:47;10.40;99.90
16655;DHT22;8441;51.344;7.022;2023-04-25T15:42:26;10.50;99.90
16655;DHT22;8441;51.344;7.022;2023-04-25T15:44:58;10.60;99.90
16655;DHT22;8441;51.344;7.022;2023-04-25T15:47:25;10.60;99.90
16655;DHT22;8441;51.344;7.022;2023-04-25T15:49:53;10.30;99.90
16655;DHT22;8441;51.344;7.022;2023-04-25T15:52:20;10.10;99.90
16655;DHT22;8441;51.344;7.022;2023-04-25T15:54:47;10.20;99.90
16655;DHT22;8441;51.344;7.022;2023-04-25T15:57:14;10.30;99.90
16655;DHT22;8441;51.344;7.022;2023-04-25T15:59:43;10.50;99.90
16655;DHT22;8441;51.344;7.022;2023-04-25T16:02:12;10.60;99.90